createdAt,value
2018-03-15T00:01:15.337Z,990.48
2018-03-15T00:02:15.313Z,990.44
2018-03-15T00:04:08.176Z,990.46
2018-03-15T00:05:08.142Z,990.38
2018-03-15T00:07:00.989Z,990.32
2018-03-15T00:08:00.966Z,990.33
2018-03-15T00:09:54.339Z,990.33
2018-03-15T00:10:54.297Z,990.38
2018-03-15T00:12:47.638Z,990.31
2018-03-15T00:13:47.617Z,990.37
2018-03-15T00:15:40.487Z,990.41
2018-03-15T00:16:40.442Z,990.41
2018-03-15T00:18:33.782Z,990.45
2018-03-15T00:19:33.761Z,990.49
2018-03-15T00:21:26.627Z,990.46
2018-03-15T00:22:26.591Z,990.49
2018-03-15T00:24:19.932Z,990.43
2018-03-15T00:25:19.911Z,990.42
2018-03-15T00:27:12.771Z,990.37
2018-03-15T00:28:12.736Z,990.38
2018-03-15T00:30:05.586Z,990.38
2018-03-15T00:31:05.565Z,990.36
2018-03-15T00:32:58.439Z,990.32
2018-03-15T00:33:58.388Z,990.33
2018-03-15T00:35:51.237Z,990.29
2018-03-15T00:36:51.210Z,990.26
2018-03-15T00:38:44.077Z,990.30
2018-03-15T00:39:44.053Z,990.32
2018-03-15T00:41:36.895Z,990.28
2018-03-15T00:42:36.875Z,990.26
2018-03-15T00:44:29.736Z,990.31
2018-03-15T00:45:29.696Z,990.29
2018-03-15T00:47:22.545Z,990.20
2018-03-15T00:48:22.525Z,990.29
2018-03-15T00:50:15.382Z,990.24
2018-03-15T00:51:15.368Z,990.27
2018-03-15T00:53:08.698Z,990.29
2018-03-15T00:54:08.664Z,990.20
2018-03-15T00:56:01.524Z,990.21
2018-03-15T00:57:01.489Z,990.20
2018-03-15T00:58:54.833Z,990.22
2018-03-15T00:59:54.808Z,990.22
2018-03-15T01:01:47.668Z,990.19
2018-03-15T01:02:47.629Z,990.20
2018-03-15T01:04:40.475Z,990.16
2018-03-15T01:05:40.454Z,990.18
2018-03-15T01:07:33.318Z,990.13
2018-03-15T01:08:33.279Z,990.13
2018-03-15T01:10:26.631Z,990.14
2018-03-15T01:11:26.610Z,990.12
2018-03-15T01:13:19.485Z,990.13
2018-03-15T01:14:19.434Z,990.12
2018-03-15T01:16:12.282Z,990.05
2018-03-15T01:17:12.262Z,990.04
2018-03-15T01:19:05.615Z,990.01
2018-03-15T01:20:05.584Z,990.02
2018-03-15T01:21:58.422Z,989.96
2018-03-15T01:22:58.399Z,989.96
2018-03-15T01:24:51.271Z,989.99
2018-03-15T01:25:51.231Z,989.98
2018-03-15T01:27:44.071Z,989.88
2018-03-15T01:28:44.051Z,989.91
2018-03-15T01:30:37.406Z,989.87
2018-03-15T01:31:37.366Z,989.82
2018-03-15T01:33:30.217Z,989.75
2018-03-15T01:34:30.195Z,989.81
2018-03-15T01:36:23.548Z,989.76
2018-03-15T01:37:23.511Z,989.70
2018-03-15T01:39:16.364Z,989.58
2018-03-15T01:40:16.343Z,989.58
2018-03-15T01:42:09.206Z,989.58
2018-03-15T01:43:09.169Z,989.55
2018-03-15T01:45:02.016Z,989.52
2018-03-15T01:46:01.995Z,989.51
2018-03-15T01:47:55.349Z,989.51
2018-03-15T01:48:55.311Z,989.48
2018-03-15T01:50:48.158Z,989.40
2018-03-15T01:51:48.133Z,989.39
2018-03-15T01:53:40.998Z,989.37
2018-03-15T01:54:40.959Z,989.42
2018-03-15T01:56:34.302Z,989.38
2018-03-15T01:57:34.276Z,989.36
2018-03-15T01:59:27.146Z,989.39
2018-03-15T02:00:27.101Z,989.38
2018-03-15T02:02:19.957Z,989.33
2018-03-15T02:03:19.929Z,989.33
2018-03-15T02:05:12.786Z,989.32
2018-03-15T02:06:12.747Z,989.38
2018-03-15T02:08:06.100Z,989.31
2018-03-15T02:09:06.066Z,989.34
2018-03-15T02:10:58.927Z,989.30
2018-03-15T02:11:58.891Z,989.26
2018-03-15T02:13:52.236Z,989.21
2018-03-15T02:14:52.210Z,989.18
2018-03-15T02:16:45.090Z,989.17
2018-03-15T02:17:45.031Z,989.13
2018-03-15T02:19:37.874Z,989.04
2018-03-15T02:20:37.852Z,989.00
2018-03-15T02:22:31.203Z,988.95
2018-03-15T02:23:31.170Z,988.96
2018-03-15T02:25:24.014Z,988.90
2018-03-15T02:26:23.992Z,988.96
2018-03-15T02:28:16.859Z,988.92
2018-03-15T02:29:16.815Z,988.85
2018-03-15T02:31:09.664Z,988.81
2018-03-15T02:32:09.640Z,988.81
2018-03-15T02:34:02.511Z,988.71
2018-03-15T02:35:02.483Z,988.70
2018-03-15T02:36:55.318Z,988.65
2018-03-15T02:37:55.298Z,988.63
2018-03-15T02:39:48.157Z,988.57
2018-03-15T02:40:48.119Z,988.57
2018-03-15T02:42:40.968Z,988.53
2018-03-15T02:43:40.946Z,988.56
2018-03-15T02:45:34.300Z,988.50
2018-03-15T02:46:34.262Z,988.49
2018-03-15T02:48:27.108Z,988.46
2018-03-15T02:49:27.088Z,988.48
2018-03-15T02:51:19.949Z,988.47
2018-03-15T02:52:19.912Z,988.52
2018-03-15T02:54:12.764Z,988.52
2018-03-15T02:55:12.746Z,988.46
2018-03-15T02:57:05.601Z,988.52
2018-03-15T02:58:05.562Z,988.53
2018-03-15T02:59:58.407Z,988.53
2018-03-15T03:00:58.386Z,988.56
2018-03-15T03:02:51.743Z,988.52
2018-03-15T03:03:51.709Z,988.47
2018-03-15T03:05:44.551Z,988.43
2018-03-15T03:06:44.529Z,988.39
2018-03-15T03:08:37.387Z,988.35
2018-03-15T03:09:37.351Z,988.37
2018-03-15T03:11:30.691Z,988.38
2018-03-15T03:12:30.666Z,988.41
2018-03-15T03:14:24.021Z,988.44
2018-03-15T03:15:23.989Z,988.47
2018-03-15T03:17:16.832Z,988.41
2018-03-15T03:18:16.807Z,988.41
2018-03-15T03:20:09.677Z,988.32
2018-03-15T03:21:09.652Z,988.30
2018-03-15T03:23:02.980Z,988.22
2018-03-15T03:24:02.958Z,988.23
2018-03-15T03:25:56.311Z,988.13
2018-03-15T03:26:56.270Z,988.13
2018-03-15T03:28:49.114Z,988.00
2018-03-15T03:29:49.094Z,988.01
2018-03-15T03:31:41.953Z,988.02
2018-03-15T03:32:41.915Z,987.91
2018-03-15T03:34:34.760Z,987.93
2018-03-15T03:35:34.740Z,987.87
2018-03-15T03:37:27.602Z,987.91
2018-03-15T03:38:27.568Z,987.90
2018-03-15T03:40:20.904Z,987.92
2018-03-15T03:41:20.879Z,987.90
2018-03-15T03:43:13.746Z,987.95
2018-03-15T03:44:13.705Z,987.96
2018-03-15T03:46:06.551Z,987.94
2018-03-15T03:47:06.531Z,987.93
2018-03-15T03:48:59.891Z,987.90
2018-03-15T03:49:59.845Z,987.91
2018-03-15T03:51:52.687Z,987.93
2018-03-15T03:52:52.665Z,987.98
2018-03-15T03:54:45.528Z,987.95
2018-03-15T03:55:45.493Z,987.96
2018-03-15T03:57:38.338Z,987.94
2018-03-15T03:58:38.314Z,987.84
2018-03-15T04:00:31.173Z,987.75
2018-03-15T04:01:31.136Z,987.71
2018-03-15T04:03:24.539Z,987.65
2018-03-15T04:04:24.461Z,987.67
2018-03-15T04:06:17.317Z,987.60
2018-03-15T04:07:17.279Z,987.57
2018-03-15T04:09:10.126Z,987.52
2018-03-15T04:10:10.099Z,987.53
2018-03-15T04:12:02.959Z,987.43
2018-03-15T04:13:02.923Z,987.42
2018-03-15T04:14:55.768Z,987.42
2018-03-15T04:15:55.746Z,987.38
2018-03-15T04:17:48.608Z,987.29
2018-03-15T04:18:48.574Z,987.32
2018-03-15T04:20:41.419Z,987.26
2018-03-15T04:21:41.395Z,987.24
2018-03-15T04:23:34.263Z,987.23
2018-03-15T04:24:34.224Z,987.22
2018-03-15T04:26:27.068Z,987.17
2018-03-15T04:27:27.045Z,987.15
2018-03-15T04:29:19.903Z,987.12
2018-03-15T04:30:19.865Z,987.14
2018-03-15T04:32:13.207Z,987.21
2018-03-15T04:33:13.184Z,987.18
2018-03-15T04:35:06.544Z,987.29
2018-03-15T04:36:06.500Z,987.26
2018-03-15T04:37:59.840Z,987.23
2018-03-15T04:38:59.813Z,987.20
2018-03-15T04:40:53.168Z,987.12
2018-03-15T04:41:53.129Z,987.12
2018-03-15T04:43:46.484Z,987.11
2018-03-15T04:44:46.462Z,987.07
2018-03-15T04:46:39.319Z,987.06
2018-03-15T04:47:39.288Z,986.99
2018-03-15T04:49:32.127Z,986.94
2018-03-15T04:50:32.102Z,986.97
2018-03-15T04:52:24.966Z,986.98
2018-03-15T04:53:24.931Z,986.96
2018-03-15T04:55:17.775Z,986.93
2018-03-15T04:56:17.755Z,986.84
2018-03-15T04:58:10.618Z,986.90
2018-03-15T04:59:10.580Z,986.82
2018-03-15T05:01:03.426Z,986.87
2018-03-15T05:02:03.403Z,986.85
2018-03-15T05:03:56.755Z,986.82
2018-03-15T05:04:56.718Z,986.77
2018-03-15T05:06:49.568Z,986.73
2018-03-15T05:07:49.544Z,986.76
2018-03-15T05:09:42.900Z,986.70
2018-03-15T05:10:42.857Z,986.66
2018-03-15T05:12:35.708Z,986.61
2018-03-15T05:13:35.685Z,986.57
2018-03-15T05:15:28.556Z,986.60
2018-03-15T05:16:28.508Z,986.62
2018-03-15T05:18:21.355Z,986.56
2018-03-15T05:19:21.332Z,986.69
2018-03-15T05:21:14.191Z,986.66
2018-03-15T05:22:14.153Z,986.64
2018-03-15T05:24:07.496Z,986.57
2018-03-15T05:25:07.525Z,986.61
2018-03-15T05:27:00.830Z,986.60
2018-03-15T05:28:00.791Z,986.53
2018-03-15T05:29:53.636Z,986.48
2018-03-15T05:30:53.617Z,986.47
2018-03-15T05:32:46.473Z,986.42
2018-03-15T05:33:46.434Z,986.38
2018-03-15T05:35:39.358Z,986.35
2018-03-15T05:36:39.263Z,986.36
2018-03-15T05:38:32.128Z,986.34
2018-03-15T05:39:32.084Z,986.36
2018-03-15T05:41:25.010Z,986.24
2018-03-15T05:42:24.914Z,986.29
2018-03-15T05:44:18.278Z,986.23
2018-03-15T05:45:18.231Z,986.18
2018-03-15T05:47:11.075Z,986.19
2018-03-15T05:48:11.053Z,986.17
2018-03-15T05:50:03.916Z,986.21
2018-03-15T05:51:03.876Z,986.24
2018-03-15T05:52:56.723Z,986.29
2018-03-15T05:53:56.706Z,986.28
2018-03-15T05:55:49.564Z,986.26
2018-03-15T05:56:49.521Z,986.25
2018-03-15T05:58:42.366Z,986.22
2018-03-15T05:59:42.345Z,986.23
2018-03-15T06:01:35.202Z,986.18
2018-03-15T06:02:35.165Z,986.18
2018-03-15T06:04:28.012Z,986.22
2018-03-15T06:05:27.987Z,986.26
2018-03-15T06:07:21.340Z,986.14
2018-03-15T06:08:21.306Z,986.21
2018-03-15T06:10:14.646Z,986.15
2018-03-15T06:11:14.624Z,986.16
2018-03-15T06:13:07.483Z,986.13
2018-03-15T06:14:07.448Z,986.11
2018-03-15T06:16:00.288Z,986.03
2018-03-15T06:17:00.266Z,986.04
2018-03-15T06:18:53.135Z,986.09
2018-03-15T06:19:53.087Z,986.08
2018-03-15T06:21:46.428Z,986.09
2018-03-15T06:22:46.407Z,986.04
2018-03-15T06:24:39.764Z,986.10
2018-03-15T06:25:39.724Z,986.08
2018-03-15T06:27:32.572Z,986.00
2018-03-15T06:28:32.549Z,986.00
2018-03-15T06:30:25.906Z,986.01
2018-03-15T06:31:25.865Z,985.95
2018-03-15T06:33:18.715Z,985.92
2018-03-15T06:34:18.696Z,985.89
2018-03-15T06:36:12.074Z,985.79
2018-03-15T06:37:12.036Z,985.82
2018-03-15T06:39:04.879Z,985.74
2018-03-15T06:40:04.855Z,985.77
2018-03-15T06:41:58.248Z,985.75
2018-03-15T06:42:58.174Z,985.77
2018-03-15T06:44:51.019Z,985.75
2018-03-15T06:45:50.999Z,985.67
2018-03-15T06:47:43.858Z,985.69
2018-03-15T06:48:43.819Z,985.69
2018-03-15T06:50:36.671Z,985.66
2018-03-15T06:51:36.643Z,985.62
2018-03-15T06:53:30.010Z,985.47
2018-03-15T06:54:29.972Z,985.51
2018-03-15T06:56:22.818Z,985.55
2018-03-15T06:57:22.805Z,985.55
2018-03-15T06:59:15.664Z,985.50
2018-03-15T07:00:15.617Z,985.52
2018-03-15T07:02:08.470Z,985.53
2018-03-15T07:03:08.447Z,985.49
2018-03-15T07:05:01.374Z,985.52
2018-03-15T07:06:01.270Z,985.48
2018-03-15T07:07:54.612Z,985.49
2018-03-15T07:08:54.588Z,985.51
2018-03-15T07:10:47.447Z,985.48
2018-03-15T07:11:47.410Z,985.47
2018-03-15T07:13:40.261Z,985.40
2018-03-15T07:14:40.241Z,985.39
2018-03-15T07:16:33.116Z,985.33
2018-03-15T07:17:33.063Z,985.32
2018-03-15T07:19:25.907Z,985.29
2018-03-15T07:20:25.887Z,985.28
2018-03-15T07:22:19.242Z,985.26
2018-03-15T07:23:19.201Z,985.28
2018-03-15T07:25:12.045Z,985.30
2018-03-15T07:26:12.022Z,985.34
2018-03-15T07:28:04.893Z,985.40
2018-03-15T07:29:04.850Z,985.46
2018-03-15T07:30:57.707Z,985.46
2018-03-15T07:31:57.685Z,985.46
2018-03-15T07:33:51.050Z,985.48
2018-03-15T07:34:51.019Z,985.48
2018-03-15T07:36:43.866Z,985.50
2018-03-15T07:37:43.839Z,985.48
2018-03-15T07:39:37.198Z,985.49
2018-03-15T07:40:37.156Z,985.41
2018-03-15T07:42:30.000Z,985.38
2018-03-15T07:43:29.978Z,985.33
2018-03-15T07:45:22.840Z,985.31
2018-03-15T07:46:22.802Z,985.35
2018-03-15T07:48:15.649Z,985.35
2018-03-15T07:49:15.631Z,985.36
2018-03-15T07:51:08.489Z,985.37
2018-03-15T07:52:08.452Z,985.38
2018-03-15T07:54:01.797Z,985.39
2018-03-15T07:55:01.774Z,985.40
2018-03-15T07:56:54.640Z,985.41
2018-03-15T07:57:54.599Z,985.43
2018-03-15T07:59:47.939Z,985.36
2018-03-15T08:00:47.920Z,985.39
2018-03-15T08:02:41.273Z,985.43
2018-03-15T08:03:41.236Z,985.43
2018-03-15T08:05:34.086Z,985.49
2018-03-15T08:06:34.061Z,985.43
2018-03-15T08:08:27.420Z,985.49
2018-03-15T08:09:27.381Z,985.47
2018-03-15T08:11:20.228Z,985.41
2018-03-15T08:12:20.206Z,985.36
2018-03-15T08:14:13.566Z,985.29
2018-03-15T08:15:13.531Z,985.26
2018-03-15T08:17:06.378Z,985.25
2018-03-15T08:18:06.352Z,985.29
2018-03-15T08:19:59.229Z,985.27
2018-03-15T08:20:59.193Z,985.21
2018-03-15T08:22:52.038Z,985.20
2018-03-15T08:23:52.017Z,985.17
2018-03-15T08:25:44.883Z,985.14
2018-03-15T08:26:44.846Z,985.17
2018-03-15T08:28:37.692Z,985.12
2018-03-15T08:29:37.671Z,985.15
2018-03-15T08:31:30.538Z,985.15
2018-03-15T08:32:30.500Z,985.16
2018-03-15T08:34:23.350Z,985.22
2018-03-15T08:35:23.328Z,985.22
2018-03-15T08:37:16.688Z,985.16
2018-03-15T08:38:16.650Z,985.16
2018-03-15T08:40:09.993Z,985.14
2018-03-15T08:41:09.970Z,985.16
2018-03-15T08:43:02.837Z,985.07
2018-03-15T08:44:02.797Z,985.07
2018-03-15T08:45:55.645Z,985.02
2018-03-15T08:46:55.631Z,984.95
2018-03-15T08:48:48.490Z,985.03
2018-03-15T08:49:48.455Z,984.99
2018-03-15T08:51:41.308Z,984.99
2018-03-15T08:52:41.283Z,984.98
2018-03-15T08:54:34.650Z,984.93
2018-03-15T08:55:34.606Z,984.83
2018-03-15T08:57:27.453Z,984.87
2018-03-15T08:58:27.437Z,984.77
2018-03-15T09:00:20.794Z,984.81
2018-03-15T09:01:20.756Z,984.77
2018-03-15T09:03:13.608Z,984.68
2018-03-15T09:04:13.584Z,984.74
2018-03-15T09:06:06.450Z,984.68
2018-03-15T09:07:06.413Z,984.72
2018-03-15T09:08:59.265Z,984.65
2018-03-15T09:09:59.245Z,984.72
2018-03-15T09:11:52.118Z,984.71
2018-03-15T09:12:52.077Z,984.75
2018-03-15T09:14:44.931Z,984.71
2018-03-15T09:15:44.909Z,984.78
2018-03-15T09:17:37.793Z,984.80
2018-03-15T09:18:37.748Z,984.79
2018-03-15T09:20:30.595Z,984.83
2018-03-15T09:21:30.620Z,984.79
2018-03-15T09:23:23.448Z,984.75
2018-03-15T09:24:23.407Z,984.78
2018-03-15T09:26:16.752Z,984.72
2018-03-15T09:27:16.731Z,984.68
2018-03-15T09:29:09.599Z,984.70
2018-03-15T09:30:09.565Z,984.72
2018-03-15T09:32:02.423Z,984.70
2018-03-15T09:33:02.396Z,984.69
2018-03-15T09:34:55.271Z,984.60
2018-03-15T09:35:55.228Z,984.59
2018-03-15T09:37:48.078Z,984.58
2018-03-15T09:38:48.057Z,984.52
2018-03-15T09:40:40.930Z,984.32
2018-03-15T09:41:40.888Z,984.31
2018-03-15T09:43:33.747Z,984.21
2018-03-15T09:44:33.723Z,984.21
2018-03-15T09:46:26.601Z,984.17
2018-03-15T09:47:26.559Z,984.12
2018-03-15T09:49:19.410Z,984.06
2018-03-15T09:50:19.389Z,983.97
2018-03-15T09:52:12.254Z,984.02
2018-03-15T09:53:12.223Z,983.95
2018-03-15T09:55:05.080Z,984.06
2018-03-15T09:56:05.056Z,984.07
2018-03-15T09:57:57.924Z,984.09
2018-03-15T09:58:57.889Z,984.13
2018-03-15T10:00:50.744Z,984.13
2018-03-15T10:01:50.725Z,984.14
2018-03-15T10:03:44.086Z,984.15
2018-03-15T10:04:44.050Z,984.18
2018-03-15T10:06:36.917Z,984.22
2018-03-15T10:07:36.882Z,984.21
2018-03-15T10:09:29.759Z,984.27
2018-03-15T10:10:29.715Z,984.28
2018-03-15T10:12:22.567Z,984.30
2018-03-15T10:13:22.556Z,984.33
2018-03-15T10:15:15.412Z,984.33
2018-03-15T10:16:15.380Z,984.30
2018-03-15T10:18:08.233Z,984.24
2018-03-15T10:19:08.212Z,984.26
2018-03-15T10:21:01.081Z,984.30
2018-03-15T10:22:01.047Z,984.24
2018-03-15T10:23:53.904Z,984.33
2018-03-15T10:24:53.888Z,984.35
2018-03-15T10:26:47.244Z,984.31
2018-03-15T10:27:47.210Z,984.32
2018-03-15T10:29:40.062Z,984.24
2018-03-15T10:30:40.043Z,984.24
2018-03-15T10:32:32.919Z,984.27
2018-03-15T10:33:32.877Z,984.33
2018-03-15T10:35:25.732Z,984.34
2018-03-15T10:36:25.710Z,984.35
2018-03-15T10:38:18.581Z,984.29
2018-03-15T10:39:18.541Z,984.30
2018-03-15T10:41:11.406Z,984.27
2018-03-15T10:42:11.383Z,984.24
2018-03-15T10:44:04.258Z,984.24
2018-03-15T10:45:04.223Z,984.21
2018-03-15T10:46:57.076Z,984.22
2018-03-15T10:47:57.124Z,984.21
2018-03-15T10:49:49.926Z,984.25
2018-03-15T10:50:49.894Z,984.24
2018-03-15T10:52:42.752Z,984.17
2018-03-15T10:53:42.735Z,984.12
2018-03-15T10:55:35.607Z,984.11
2018-03-15T10:56:35.567Z,984.16
2018-03-15T10:58:28.424Z,984.08
2018-03-15T10:59:28.406Z,984.05
2018-03-15T11:01:21.290Z,984.05
2018-03-15T11:02:21.252Z,984.01
2018-03-15T11:04:14.106Z,984.06
2018-03-15T11:05:14.085Z,984.02
2018-03-15T11:07:06.953Z,983.96
2018-03-15T11:08:06.920Z,983.95
2018-03-15T11:09:59.780Z,983.88
2018-03-15T11:10:59.756Z,983.84
2018-03-15T11:12:52.682Z,983.80
2018-03-15T11:13:52.595Z,983.79
2018-03-15T11:15:45.450Z,983.72
2018-03-15T11:16:45.430Z,983.76
2018-03-15T11:18:38.307Z,983.67
2018-03-15T11:19:38.271Z,983.66
2018-03-15T11:21:31.124Z,983.65
2018-03-15T11:22:31.106Z,983.64
2018-03-15T11:24:24.012Z,983.51
2018-03-15T11:25:23.948Z,983.59
2018-03-15T11:27:16.807Z,983.54
2018-03-15T11:28:16.792Z,983.55
2018-03-15T11:30:09.661Z,983.44
2018-03-15T11:31:09.624Z,983.42
2018-03-15T11:33:02.487Z,983.38
2018-03-15T11:34:02.469Z,983.31
2018-03-15T11:35:55.341Z,983.23
2018-03-15T11:36:55.306Z,983.23
2018-03-15T11:38:48.162Z,983.17
2018-03-15T11:39:48.145Z,983.14
2018-03-15T11:41:41.018Z,983.07
2018-03-15T11:42:40.986Z,983.10
2018-03-15T11:44:33.890Z,983.02
2018-03-15T11:45:33.826Z,983.04
2018-03-15T11:47:26.706Z,983.01
2018-03-15T11:48:26.658Z,982.98
2018-03-15T11:50:19.520Z,982.99
2018-03-15T11:51:19.503Z,982.98
2018-03-15T11:53:12.870Z,982.96
2018-03-15T11:54:12.833Z,982.85
2018-03-15T11:56:05.688Z,982.79
2018-03-15T11:57:05.672Z,982.72
2018-03-15T11:58:58.544Z,982.67
2018-03-15T11:59:58.517Z,982.66
2018-03-15T12:01:51.413Z,982.66
2018-03-15T12:02:51.350Z,982.60
2018-03-15T12:04:44.227Z,982.57
2018-03-15T12:05:44.192Z,982.55
2018-03-15T12:07:37.572Z,982.46
2018-03-15T12:08:37.533Z,982.45
2018-03-15T12:10:30.402Z,982.38
2018-03-15T12:11:30.376Z,982.26
2018-03-15T12:13:23.234Z,982.29
2018-03-15T12:14:23.217Z,982.31
2018-03-15T12:16:16.089Z,982.26
2018-03-15T12:17:16.061Z,982.25
2018-03-15T12:19:09.406Z,982.20
2018-03-15T12:20:09.390Z,982.16
2018-03-15T12:22:02.263Z,982.15
2018-03-15T12:23:02.232Z,982.15
2018-03-15T12:24:55.163Z,982.11
2018-03-15T12:25:55.071Z,982.14
2018-03-15T12:27:47.947Z,982.12
2018-03-15T12:28:47.910Z,982.08
2018-03-15T12:30:40.776Z,981.99
2018-03-15T12:31:40.757Z,982.03
2018-03-15T12:33:33.638Z,981.97
2018-03-15T12:34:33.604Z,981.95
2018-03-15T12:36:26.458Z,981.93
2018-03-15T12:37:26.443Z,981.94
2018-03-15T12:39:19.313Z,981.88
2018-03-15T12:40:19.283Z,981.82
2018-03-15T12:42:12.140Z,981.87
2018-03-15T12:43:12.122Z,981.81
2018-03-15T12:45:05.489Z,981.83
2018-03-15T12:46:05.462Z,981.79
2018-03-15T12:47:58.320Z,981.76
2018-03-15T12:48:58.298Z,981.76
2018-03-15T12:50:51.172Z,981.81
2018-03-15T12:51:51.143Z,981.75
2018-03-15T12:53:44.001Z,981.72
2018-03-15T12:54:43.982Z,981.68
2018-03-15T12:56:36.872Z,981.68
2018-03-15T12:57:36.827Z,981.58
2018-03-15T12:59:30.180Z,981.58
2018-03-15T13:00:30.210Z,981.56
2018-03-15T13:02:23.034Z,981.55
2018-03-15T13:03:23.000Z,981.55
2018-03-15T13:05:15.930Z,981.51
2018-03-15T13:06:15.838Z,981.52
2018-03-15T13:08:08.712Z,981.56
2018-03-15T13:09:08.681Z,981.55
2018-03-15T13:11:01.537Z,981.62
2018-03-15T13:12:01.569Z,981.60
2018-03-15T13:13:54.392Z,981.56
2018-03-15T13:14:54.360Z,981.53
2018-03-15T13:16:47.235Z,981.53
2018-03-15T13:17:47.200Z,981.57
2018-03-15T13:19:40.082Z,981.50
2018-03-15T13:20:40.050Z,981.41
2018-03-15T13:22:32.904Z,981.43
2018-03-15T13:23:32.888Z,981.41
2018-03-15T13:25:25.761Z,981.45
2018-03-15T13:26:25.725Z,981.45
2018-03-15T13:28:18.581Z,981.51
2018-03-15T13:29:18.568Z,981.51
2018-03-15T13:31:11.450Z,981.49
2018-03-15T13:32:11.406Z,981.47
2018-03-15T13:34:04.259Z,981.45
2018-03-15T13:35:04.244Z,981.49
2018-03-15T13:36:57.114Z,981.39
2018-03-15T13:37:57.084Z,981.37
2018-03-15T13:39:49.939Z,981.34
2018-03-15T13:40:49.921Z,981.34
2018-03-15T13:42:42.793Z,981.41
2018-03-15T13:43:42.760Z,981.43
2018-03-15T13:45:35.620Z,981.47
2018-03-15T13:46:35.599Z,981.44
2018-03-15T13:48:28.510Z,981.48
2018-03-15T13:49:28.440Z,981.47
2018-03-15T13:51:21.295Z,981.47
2018-03-15T13:52:21.276Z,981.54
2018-03-15T13:54:14.147Z,981.45
2018-03-15T13:55:14.115Z,981.46
2018-03-15T13:57:06.972Z,981.42
2018-03-15T13:58:06.979Z,981.39
2018-03-15T13:59:59.823Z,981.35
2018-03-15T14:00:59.790Z,981.34
2018-03-15T14:02:52.645Z,981.35
2018-03-15T14:03:52.629Z,981.35
2018-03-15T14:05:45.995Z,981.32
2018-03-15T14:06:45.959Z,981.29
2018-03-15T14:08:38.815Z,981.28
2018-03-15T14:09:38.799Z,981.23
2018-03-15T14:11:31.676Z,981.19
2018-03-15T14:12:31.636Z,981.16
2018-03-15T14:14:24.505Z,981.20
2018-03-15T14:15:24.484Z,981.18
2018-03-15T14:17:17.393Z,981.14
2018-03-15T14:18:17.312Z,981.14
2018-03-15T14:20:10.167Z,981.09
2018-03-15T14:21:10.148Z,981.03
2018-03-15T14:23:03.023Z,981.04
2018-03-15T14:24:02.988Z,981.05
2018-03-15T14:25:55.843Z,980.97
2018-03-15T14:26:55.825Z,980.94
2018-03-15T14:28:48.696Z,980.99
2018-03-15T14:29:48.663Z,981.00
2018-03-15T14:31:42.011Z,980.91
2018-03-15T14:32:41.993Z,980.85
2018-03-15T14:34:34.866Z,980.66
2018-03-15T14:35:34.830Z,980.54
2018-03-15T14:37:27.688Z,980.41
2018-03-15T14:38:27.670Z,980.42
2018-03-15T14:40:20.540Z,980.53
2018-03-15T14:41:20.507Z,980.60
2018-03-15T14:43:13.366Z,980.76
2018-03-15T14:44:13.375Z,980.68
2018-03-15T14:46:06.295Z,980.64
2018-03-15T14:47:06.185Z,980.60
2018-03-15T14:48:59.040Z,980.47
2018-03-15T14:49:59.024Z,980.41
2018-03-15T14:51:51.895Z,980.38
2018-03-15T14:52:51.867Z,980.42
2018-03-15T14:54:44.718Z,980.57
2018-03-15T14:55:44.699Z,980.61
2018-03-15T14:57:37.571Z,980.75
2018-03-15T14:58:37.538Z,980.81
2018-03-15T15:00:30.394Z,980.94
2018-03-15T15:01:30.373Z,980.91
2018-03-15T15:03:23.256Z,980.83
2018-03-15T15:04:23.211Z,980.79
2018-03-15T15:06:16.110Z,980.77
2018-03-15T15:07:16.052Z,980.78
2018-03-15T15:09:08.924Z,980.85
2018-03-15T15:10:08.887Z,980.86
2018-03-15T15:12:02.239Z,980.90
2018-03-15T15:13:02.219Z,980.90
2018-03-15T15:14:55.086Z,980.98
2018-03-15T15:15:55.055Z,980.97
2018-03-15T15:17:47.911Z,981.00
2018-03-15T15:18:47.889Z,981.00
2018-03-15T15:20:41.254Z,981.01
2018-03-15T15:21:41.218Z,981.06
2018-03-15T15:23:34.077Z,981.05
2018-03-15T15:24:34.060Z,981.10
2018-03-15T15:26:26.927Z,981.06
2018-03-15T15:27:26.934Z,981.08
2018-03-15T15:29:19.749Z,981.08
2018-03-15T15:30:19.735Z,981.15
2018-03-15T15:32:12.604Z,981.18
2018-03-15T15:33:12.567Z,981.20
2018-03-15T15:35:05.429Z,981.23
2018-03-15T15:36:05.409Z,981.29
2018-03-15T15:37:58.284Z,981.27
2018-03-15T15:38:58.247Z,981.29
2018-03-15T15:40:51.103Z,981.34
2018-03-15T15:41:51.085Z,981.34
2018-03-15T15:43:43.959Z,981.36
2018-03-15T15:44:43.924Z,981.31
2018-03-15T15:46:37.274Z,981.36
2018-03-15T15:47:37.252Z,981.40
2018-03-15T15:49:30.621Z,981.35
2018-03-15T15:50:30.586Z,981.33
2018-03-15T15:52:23.443Z,981.28
2018-03-15T15:53:23.426Z,981.27
2018-03-15T15:55:16.298Z,981.18
2018-03-15T15:56:16.265Z,981.12
2018-03-15T15:58:09.121Z,981.17
2018-03-15T15:59:09.102Z,981.25
2018-03-15T16:01:01.974Z,981.24
2018-03-15T16:02:01.949Z,981.26
2018-03-15T16:03:54.793Z,981.21
2018-03-15T16:04:54.775Z,981.24
2018-03-15T16:06:47.658Z,981.18
2018-03-15T16:07:47.616Z,981.17
2018-03-15T16:09:40.475Z,981.26
2018-03-15T16:10:40.455Z,981.30
2018-03-15T16:12:33.373Z,981.35
2018-03-15T16:13:33.298Z,981.38
2018-03-15T16:15:26.158Z,981.29
2018-03-15T16:16:26.134Z,981.29
2018-03-15T16:18:19.009Z,981.27
2018-03-15T16:19:18.973Z,981.27
2018-03-15T16:21:11.826Z,981.24
2018-03-15T16:22:11.810Z,981.24
2018-03-15T16:24:04.683Z,981.14
2018-03-15T16:25:04.645Z,981.16
2018-03-15T16:26:57.539Z,981.17
2018-03-15T16:27:57.485Z,981.01
2018-03-15T16:29:50.366Z,980.74
2018-03-15T16:30:50.326Z,980.85
2018-03-15T16:32:43.179Z,981.20
2018-03-15T16:33:43.162Z,981.30
2018-03-15T16:35:36.032Z,981.29
2018-03-15T16:36:36.001Z,981.34
2018-03-15T16:38:28.857Z,981.41
2018-03-15T16:39:28.837Z,981.47
2018-03-15T16:41:21.705Z,981.58
2018-03-15T16:42:21.671Z,981.64
2018-03-15T16:44:15.530Z,981.67
2018-03-15T16:45:15.512Z,981.68
2018-03-15T16:47:08.385Z,981.69
2018-03-15T16:48:08.351Z,981.66
2018-03-15T16:50:01.204Z,981.71
2018-03-15T16:51:01.190Z,981.75
2018-03-15T16:52:54.059Z,981.73
2018-03-15T16:53:54.025Z,981.76
2018-03-15T16:55:46.880Z,981.74
2018-03-15T16:56:46.910Z,981.76
2018-03-15T16:58:39.729Z,981.84
2018-03-15T16:59:39.695Z,981.90
2018-03-15T17:01:32.555Z,981.93
2018-03-15T17:02:32.533Z,981.92
2018-03-15T17:04:25.407Z,981.91
2018-03-15T17:05:25.369Z,981.93
2018-03-15T17:07:18.725Z,981.99
2018-03-15T17:08:18.704Z,981.95
2018-03-15T17:10:11.575Z,981.97
2018-03-15T17:11:11.540Z,981.98
2018-03-15T17:13:04.390Z,981.94
2018-03-15T17:14:04.371Z,981.93
2018-03-15T17:15:57.248Z,981.98
2018-03-15T17:16:57.209Z,981.97
2018-03-15T17:18:50.063Z,982.04
2018-03-15T17:19:50.090Z,982.06
2018-03-15T17:21:42.916Z,982.09
2018-03-15T17:22:42.879Z,982.08
2018-03-15T17:24:35.736Z,982.07
2018-03-15T17:25:35.718Z,982.06
2018-03-15T17:27:28.585Z,982.02
2018-03-15T17:28:28.593Z,982.04
2018-03-15T17:30:21.419Z,982.13
2018-03-15T17:31:21.400Z,982.15
2018-03-15T17:33:14.272Z,982.10
2018-03-15T17:34:14.229Z,982.11
2018-03-15T17:36:07.088Z,982.06
2018-03-15T17:37:07.066Z,982.10
2018-03-15T17:38:59.935Z,982.12
2018-03-15T17:39:59.904Z,982.12
2018-03-15T17:41:53.269Z,982.14
2018-03-15T17:42:53.251Z,982.16
2018-03-15T17:44:46.124Z,982.19
2018-03-15T17:45:46.082Z,982.21
2018-03-15T17:47:38.933Z,982.18
2018-03-15T17:48:38.917Z,982.18
2018-03-15T17:50:31.781Z,982.19
2018-03-15T17:51:31.748Z,982.16
2018-03-15T17:53:24.600Z,982.08
2018-03-15T17:54:24.583Z,982.04
2018-03-15T17:56:17.450Z,982.02
2018-03-15T17:57:17.417Z,982.06
2018-03-15T17:59:10.763Z,982.10